sensor_id;sensor_type;location;lat;lon;timestamp;P1;durP1;ratioP1;P2;durP2;ratioP2
33268;SDS011;19640;50.944;5.260;2023-09-19T00:00:25;10.93;;;2.15;;
33268;SDS011;19640;50.944;5.260;2023-09-19T00:02:55;5.35;;;1.08;;
33268;SDS011;19640;50.944;5.260;2023-09-19T00:05:24;6.55;;;1.30;;
33268;SDS011;19640;50.944;5.260;2023-09-19T00:10:27;6.05;;;1.58;;
33268;SDS011;19640;50.944;5.260;2023-09-19T00:12:59;8.40;;;1.38;;
33268;SDS011;19640;50.944;5.260;2023-09-19T00:15:35;5.53;;;1.63;;
33268;SDS011;19640;50.944;5.260;2023-09-19T00:18:03;10.80;;;1.58;;
33268;SDS011;19640;50.944;5.260;2023-09-19T00:20:37;6.05;;;1.25;;
33268;SDS011;19640;50.944;5.260;2023-09-19T00:23:03;6.60;;;1.30;;
33268;SDS011;19640;50.944;5.260;2023-09-19T00:25:36;8.00;;;2.63;;
33268;SDS011;19640;50.944;5.260;2023-09-19T00:28:03;7.78;;;1.40;;
33268;SDS011;19640;50.944;5.260;2023-09-19T00:30:34;4.88;;;1.30;;
33268;SDS011;19640;50.944;5.260;2023-09-19T00:33:07;7.13;;;1.70;;
33268;SDS011;19640;50.944;5.260;2023-09-19T00:35:32;5.70;;;1.30;;
33268;SDS011;19640;50.944;5.260;2023-09-19T00:43:00;10.70;;;2.17;;
33268;SDS011;19640;50.944;5.260;2023-09-19T00:45:25;6.65;;;1.55;;
33268;SDS011;19640;50.944;5.260;2023-09-19T00:47:51;10.48;;;1.80;;
33268;SDS011;19640;50.944;5.260;2023-09-19T00:50:17;5.55;;;1.30;;
33268;SDS011;19640;50.944;5.260;2023-09-19T00:52:48;7.70;;;1.60;;
33268;SDS011;19640;50.944;5.260;2023-09-19T00:55:17;8.80;;;1.55;;
33268;SDS011;19640;50.944;5.260;2023-09-19T00:58:03;5.10;;;1.40;;
33268;SDS011;19640;50.944;5.260;2023-09-19T01:00:32;5.30;;;1.23;;
33268;SDS011;19640;50.944;5.260;2023-09-19T01:03:00;7.93;;;1.10;;
33268;SDS011;19640;50.944;5.260;2023-09-19T01:05:28;8.77;;;2.00;;
33268;SDS011;19640;50.944;5.260;2023-09-19T01:07:55;7.35;;;1.45;;
33268;SDS011;19640;50.944;5.260;2023-09-19T01:10:20;6.60;;;1.25;;
33268;SDS011;19640;50.944;5.260;2023-09-19T01:30:44;5.40;;;1.20;;
33268;SDS011;19640;50.944;5.260;2023-09-19T01:33:15;3.70;;;1.20;;
33268;SDS011;19640;50.944;5.260;2023-09-19T01:35:42;12.38;;;1.60;;
33268;SDS011;19640;50.944;5.260;2023-09-19T01:38:07;8.45;;;1.20;;
33268;SDS011;19640;50.944;5.260;2023-09-19T01:40:41;6.35;;;1.30;;
33268;SDS011;19640;50.944;5.260;2023-09-19T01:43:12;6.90;;;1.40;;
33268;SDS011;19640;50.944;5.260;2023-09-19T01:46:48;8.63;;;1.17;;
33268;SDS011;19640;50.944;5.260;2023-09-19T01:48:50;11.88;;;1.70;;
33268;SDS011;19640;50.944;5.260;2023-09-19T01:51:42;4.43;;;1.30;;
33268;SDS011;19640;50.944;5.260;2023-09-19T01:54:18;3.88;;;1.20;;
33268;SDS011;19640;50.944;5.260;2023-09-19T01:57:07;10.38;;;1.20;;
33268;SDS011;19640;50.944;5.260;2023-09-19T01:59:52;5.65;;;1.40;;
33268;SDS011;19640;50.944;5.260;2023-09-19T02:02:24;6.03;;;1.05;;
33268;SDS011;19640;50.944;5.260;2023-09-19T02:04:50;9.07;;;1.77;;
33268;SDS011;19640;50.944;5.260;2023-09-19T02:07:18;6.82;;;1.65;;
33268;SDS011;19640;50.944;5.260;2023-09-19T02:09:43;8.27;;;1.50;;
33268;SDS011;19640;50.944;5.260;2023-09-19T02:12:09;11.55;;;1.98;;
33268;SDS011;19640;50.944;5.260;2023-09-19T02:14:35;8.85;;;1.50;;
33268;SDS011;19640;50.944;5.260;2023-09-19T02:17:03;7.70;;;1.30;;
33268;SDS011;19640;50.944;5.260;2023-09-19T02:19:33;6.05;;;2.03;;
33268;SDS011;19640;50.944;5.260;2023-09-19T02:21:59;6.60;;;1.38;;
33268;SDS011;19640;50.944;5.260;2023-09-19T02:24:30;4.53;;;1.48;;
33268;SDS011;19640;50.944;5.260;2023-09-19T02:26:56;5.90;;;1.70;;
33268;SDS011;19640;50.944;5.260;2023-09-19T02:29:24;9.35;;;1.70;;
33268;SDS011;19640;50.944;5.260;2023-09-19T02:31:50;13.80;;;2.45;;
33268;SDS011;19640;50.944;5.260;2023-09-19T02:34:15;9.48;;;1.67;;
33268;SDS011;19640;50.944;5.260;2023-09-19T02:36:42;6.28;;;1.65;;
33268;SDS011;19640;50.944;5.260;2023-09-19T02:39:09;6.50;;;1.45;;
33268;SDS011;19640;50.944;5.260;2023-09-19T02:41:37;5.15;;;1.40;;
33268;SDS011;19640;50.944;5.260;2023-09-19T02:44:03;5.55;;;1.33;;
33268;SDS011;19640;50.944;5.260;2023-09-19T02:46:34;7.05;;;1.40;;
33268;SDS011;19640;50.944;5.260;2023-09-19T02:49:01;9.20;;;1.50;;
33268;SDS011;19640;50.944;5.260;2023-09-19T02:51:30;4.85;;;1.35;;
33268;SDS011;19640;50.944;5.260;2023-09-19T02:53:56;8.57;;;1.73;;
33268;SDS011;19640;50.944;5.260;2023-09-19T02:56:21;6.97;;;1.52;;
33268;SDS011;19640;50.944;5.260;2023-09-19T02:58:47;13.52;;;1.52;;
33268;SDS011;19640;50.944;5.260;2023-09-19T03:01:15;8.43;;;1.83;;
33268;SDS011;19640;50.944;5.260;2023-09-19T03:03:41;5.47;;;1.52;;
33268;SDS011;19640;50.944;5.260;2023-09-19T03:06:07;5.82;;;1.50;;
33268;SDS011;19640;50.944;5.260;2023-09-19T03:08:34;6.55;;;1.20;;
33268;SDS011;19640;50.944;5.260;2023-09-19T03:11:03;12.57;;;1.90;;
33268;SDS011;19640;50.944;5.260;2023-09-19T03:13:29;8.55;;;1.50;;
33268;SDS011;19640;50.944;5.260;2023-09-19T03:15:56;11.98;;;1.90;;
33268;SDS011;19640;50.944;5.260;2023-09-19T03:18:24;11.48;;;1.60;;
33268;SDS011;19640;50.944;5.260;2023-09-19T03:20:55;6.10;;;1.52;;
33268;SDS011;19640;50.944;5.260;2023-09-19T03:23:21;4.03;;;1.05;;
33268;SDS011;19640;50.944;5.260;2023-09-19T03:25:47;5.03;;;1.38;;
33268;SDS011;19640;50.944;5.260;2023-09-19T03:28:13;9.70;;;1.40;;
33268;SDS011;19640;50.944;5.260;2023-09-19T03:30:42;6.00;;;1.10;;
33268;SDS011;19640;50.944;5.260;2023-09-19T03:33:09;8.75;;;2.28;;
33268;SDS011;19640;50.944;5.260;2023-09-19T03:35:37;4.28;;;0.95;;
33268;SDS011;19640;50.944;5.260;2023-09-19T03:38:05;7.63;;;2.25;;
33268;SDS011;19640;50.944;5.260;2023-09-19T03:40:31;8.80;;;1.20;;
33268;SDS011;19640;50.944;5.260;2023-09-19T03:43:00;6.45;;;1.15;;
33268;SDS011;19640;50.944;5.260;2023-09-19T03:45:26;8.48;;;1.42;;
33268;SDS011;19640;50.944;5.260;2023-09-19T03:47:58;10.13;;;1.88;;
33268;SDS011;19640;50.944;5.260;2023-09-19T03:50:24;7.75;;;1.58;;
33268;SDS011;19640;50.944;5.260;2023-09-19T03:52:55;2.97;;;1.33;;
33268;SDS011;19640;50.944;5.260;2023-09-19T03:55:22;6.38;;;1.90;;
33268;SDS011;19640;50.944;5.260;2023-09-19T03:57:48;6.82;;;1.60;;
33268;SDS011;19640;50.944;5.260;2023-09-19T04:00:16;6.38;;;1.38;;
33268;SDS011;19640;50.944;5.260;2023-09-19T04:05:18;5.28;;;1.35;;
33268;SDS011;19640;50.944;5.260;2023-09-19T04:07:44;6.72;;;1.40;;
33268;SDS011;19640;50.944;5.260;2023-09-19T04:10:12;8.93;;;1.40;;
33268;SDS011;19640;50.944;5.260;2023-09-19T04:12:39;8.82;;;1.98;;
33268;SDS011;19640;50.944;5.260;2023-09-19T04:15:06;10.45;;;1.45;;
33268;SDS011;19640;50.944;5.260;2023-09-19T04:17:33;8.55;;;1.50;;
33268;SDS011;19640;50.944;5.260;2023-09-19T04:19:59;5.22;;;1.42;;
33268;SDS011;19640;50.944;5.260;2023-09-19T04:22:25;14.82;;;1.60;;
33268;SDS011;19640;50.944;5.260;2023-09-19T04:24:52;10.60;;;1.70;;
33268;SDS011;19640;50.944;5.260;2023-09-19T04:27:20;12.75;;;1.50;;
33268;SDS011;19640;50.944;5.260;2023-09-19T04:29:51;10.70;;;1.50;;
33268;SDS011;19640;50.944;5.260;2023-09-19T04:32:19;7.72;;;1.48;;
33268;SDS011;19640;50.944;5.260;2023-09-19T04:34:46;8.45;;;1.30;;
33268;SDS011;19640;50.944;5.260;2023-09-19T04:37:20;5.38;;;1.10;;
33268;SDS011;19640;50.944;5.260;2023-09-19T04:39:47;7.68;;;1.20;;
33268;SDS011;19640;50.944;5.260;2023-09-19T04:42:13;5.65;;;1.20;;
33268;SDS011;19640;50.944;5.260;2023-09-19T04:44:42;5.28;;;1.48;;
33268;SDS011;19640;50.944;5.260;2023-09-19T04:47:09;6.50;;;1.50;;
33268;SDS011;19640;50.944;5.260;2023-09-19T04:49:38;9.07;;;1.52;;
33268;SDS011;19640;50.944;5.260;2023-09-19T04:52:05;5.20;;;1.20;;
33268;SDS011;19640;50.944;5.260;2023-09-19T04:54:33;5.45;;;1.65;;
33268;SDS011;19640;50.944;5.260;2023-09-19T04:57:00;4.82;;;1.40;;
33268;SDS011;19640;50.944;5.260;2023-09-19T04:59:27;5.18;;;1.13;;
33268;SDS011;19640;50.944;5.260;2023-09-19T05:06:51;8.55;;;1.73;;
33268;SDS011;19640;50.944;5.260;2023-09-19T05:09:18;5.57;;;1.63;;
33268;SDS011;19640;50.944;5.260;2023-09-19T05:11:45;4.32;;;1.45;;
33268;SDS011;19640;50.944;5.260;2023-09-19T05:14:11;7.80;;;1.08;;
33268;SDS011;19640;50.944;5.260;2023-09-19T05:16:37;9.50;;;1.92;;
33268;SDS011;19640;50.944;5.260;2023-09-19T05:19:04;4.95;;;1.98;;
33268;SDS011;19640;50.944;5.260;2023-09-19T05:21:31;10.43;;;1.48;;
33268;SDS011;19640;50.944;5.260;2023-09-19T05:23:58;10.60;;;1.70;;
33268;SDS011;19640;50.944;5.260;2023-09-19T05:26:24;8.00;;;1.77;;
33268;SDS011;19640;50.944;5.260;2023-09-19T05:28:50;6.97;;;1.05;;
33268;SDS011;19640;50.944;5.260;2023-09-19T05:31:17;7.05;;;1.48;;
33268;SDS011;19640;50.944;5.260;2023-09-19T05:33:44;9.15;;;1.45;;
33268;SDS011;19640;50.944;5.260;2023-09-19T05:36:10;9.65;;;1.85;;
33268;SDS011;19640;50.944;5.260;2023-09-19T05:38:38;6.50;;;1.42;;
33268;SDS011;19640;50.944;5.260;2023-09-19T05:41:06;5.75;;;1.60;;
33268;SDS011;19640;50.944;5.260;2023-09-19T05:43:33;7.22;;;1.30;;
33268;SDS011;19640;50.944;5.260;2023-09-19T05:45:59;6.63;;;1.73;;
33268;SDS011;19640;50.944;5.260;2023-09-19T05:48:25;4.88;;;1.40;;
33268;SDS011;19640;50.944;5.260;2023-09-19T05:50:52;7.55;;;1.48;;
33268;SDS011;19640;50.944;5.260;2023-09-19T05:53:17;5.40;;;1.33;;
33268;SDS011;19640;50.944;5.260;2023-09-19T05:55:43;3.05;;;1.20;;
33268;SDS011;19640;50.944;5.260;2023-09-19T05:58:11;5.93;;;1.17;;
33268;SDS011;19640;50.944;5.260;2023-09-19T06:00:42;4.30;;;1.35;;
33268;SDS011;19640;50.944;5.260;2023-09-19T06:03:09;7.32;;;1.42;;
33268;SDS011;19640;50.944;5.260;2023-09-19T06:05:37;13.35;;;1.50;;
33268;SDS011;19640;50.944;5.260;2023-09-19T06:08:06;6.93;;;1.75;;
33268;SDS011;19640;50.944;5.260;2023-09-19T06:10:32;3.53;;;1.20;;
33268;SDS011;19640;50.944;5.260;2023-09-19T06:13:00;7.45;;;1.17;;
33268;SDS011;19640;50.944;5.260;2023-09-19T06:15:29;7.28;;;1.60;;
33268;SDS011;19640;50.944;5.260;2023-09-19T06:17:57;12.43;;;1.92;;
33268;SDS011;19640;50.944;5.260;2023-09-19T06:20:30;8.18;;;1.55;;
33268;SDS011;19640;50.944;5.260;2023-09-19T06:22:56;7.13;;;1.27;;
33268;SDS011;19640;50.944;5.260;2023-09-19T06:25:21;5.88;;;1.70;;
33268;SDS011;19640;50.944;5.260;2023-09-19T06:27:49;6.05;;;1.13;;
33268;SDS011;19640;50.944;5.260;2023-09-19T06:30:17;7.65;;;1.35;;
33268;SDS011;19640;50.944;5.260;2023-09-19T06:32:44;4.63;;;1.45;;
33268;SDS011;19640;50.944;5.260;2023-09-19T06:35:10;5.93;;;1.63;;
33268;SDS011;19640;50.944;5.260;2023-09-19T06:37:38;5.28;;;1.30;;
33268;SDS011;19640;50.944;5.260;2023-09-19T06:40:05;8.68;;;1.48;;
33268;SDS011;19640;50.944;5.260;2023-09-19T06:42:32;10.18;;;1.20;;
33268;SDS011;19640;50.944;5.260;2023-09-19T06:44:58;8.77;;;1.45;;
33268;SDS011;19640;50.944;5.260;2023-09-19T06:47:24;5.90;;;2.53;;
33268;SDS011;19640;50.944;5.260;2023-09-19T06:49:52;5.78;;;1.30;;
33268;SDS011;19640;50.944;5.260;2023-09-19T06:52:24;8.65;;;2.03;;
33268;SDS011;19640;50.944;5.260;2023-09-19T06:54:52;5.32;;;1.40;;
33268;SDS011;19640;50.944;5.260;2023-09-19T06:57:24;5.95;;;1.40;;
33268;SDS011;19640;50.944;5.260;2023-09-19T06:59:50;7.95;;;1.70;;
33268;SDS011;19640;50.944;5.260;2023-09-19T07:02:17;5.85;;;1.88;;
33268;SDS011;19640;50.944;5.260;2023-09-19T07:04:43;7.05;;;1.75;;
33268;SDS011;19640;50.944;5.260;2023-09-19T07:07:08;5.65;;;1.88;;
33268;SDS011;19640;50.944;5.260;2023-09-19T07:09:36;7.15;;;1.55;;
33268;SDS011;19640;50.944;5.260;2023-09-19T07:12:02;8.20;;;1.63;;
33268;SDS011;19640;50.944;5.260;2023-09-19T07:14:28;7.68;;;1.30;;
33268;SDS011;19640;50.944;5.260;2023-09-19T07:16:55;6.13;;;1.75;;
33268;SDS011;19640;50.944;5.260;2023-09-19T07:19:22;6.13;;;1.58;;
33268;SDS011;19640;50.944;5.260;2023-09-19T07:21:47;3.58;;;1.10;;
33268;SDS011;19640;50.944;5.260;2023-09-19T07:24:15;5.72;;;1.30;;
33268;SDS011;19640;50.944;5.260;2023-09-19T07:29:10;5.57;;;1.45;;
33268;SDS011;19640;50.944;5.260;2023-09-19T07:31:38;9.40;;;1.23;;
33268;SDS011;19640;50.944;5.260;2023-09-19T07:34:03;7.30;;;1.70;;
33268;SDS011;19640;50.944;5.260;2023-09-19T07:36:30;3.88;;;0.82;;
33268;SDS011;19640;50.944;5.260;2023-09-19T07:38:57;7.07;;;1.80;;
33268;SDS011;19640;50.944;5.260;2023-09-19T07:41:25;6.45;;;1.42;;
33268;SDS011;19640;50.944;5.260;2023-09-19T07:43:51;3.95;;;1.08;;
33268;SDS011;19640;50.944;5.260;2023-09-19T07:46:17;4.22;;;1.35;;
33268;SDS011;19640;50.944;5.260;2023-09-19T07:48:44;5.95;;;1.08;;
33268;SDS011;19640;50.944;5.260;2023-09-19T07:51:14;7.05;;;1.58;;
33268;SDS011;19640;50.944;5.260;2023-09-19T07:53:42;7.93;;;1.33;;
33268;SDS011;19640;50.944;5.260;2023-09-19T07:56:09;7.70;;;1.70;;
33268;SDS011;19640;50.944;5.260;2023-09-19T07:58:36;4.03;;;1.10;;
33268;SDS011;19640;50.944;5.260;2023-09-19T08:01:06;4.60;;;1.48;;
33268;SDS011;19640;50.944;5.260;2023-09-19T08:03:33;3.25;;;0.85;;
33268;SDS011;19640;50.944;5.260;2023-09-19T08:06:01;5.63;;;1.10;;
33268;SDS011;19640;50.944;5.260;2023-09-19T08:08:32;7.90;;;1.40;;
33268;SDS011;19640;50.944;5.260;2023-09-19T08:11:06;4.53;;;1.20;;
33268;SDS011;19640;50.944;5.260;2023-09-19T08:13:39;4.28;;;1.30;;
33268;SDS011;19640;50.944;5.260;2023-09-19T08:16:11;7.55;;;1.60;;
33268;SDS011;19640;50.944;5.260;2023-09-19T08:18:40;5.47;;;1.30;;
33268;SDS011;19640;50.944;5.260;2023-09-19T08:21:06;8.13;;;1.13;;
33268;SDS011;19640;50.944;5.260;2023-09-19T08:23:39;6.00;;;1.00;;
33268;SDS011;19640;50.944;5.260;2023-09-19T08:26:11;6.35;;;1.25;;
33268;SDS011;19640;50.944;5.260;2023-09-19T08:28:37;9.15;;;1.10;;
33268;SDS011;19640;50.944;5.260;2023-09-19T08:31:06;5.60;;;1.15;;
33268;SDS011;19640;50.944;5.260;2023-09-19T08:33:35;6.05;;;1.17;;
33268;SDS011;19640;50.944;5.260;2023-09-19T08:36:02;6.32;;;1.13;;
33268;SDS011;19640;50.944;5.260;2023-09-19T08:38:33;2.47;;;0.85;;
33268;SDS011;19640;50.944;5.260;2023-09-19T08:41:00;4.47;;;1.65;;
33268;SDS011;19640;50.944;5.260;2023-09-19T08:43:29;6.30;;;1.85;;
33268;SDS011;19640;50.944;5.260;2023-09-19T08:46:38;5.38;;;1.02;;
33268;SDS011;19640;50.944;5.260;2023-09-19T08:48:57;5.38;;;1.42;;
33268;SDS011;19640;50.944;5.260;2023-09-19T08:54:12;7.60;;;1.45;;
33268;SDS011;19640;50.944;5.260;2023-09-19T08:56:52;7.90;;;1.65;;
33268;SDS011;19640;50.944;5.260;2023-09-19T08:59:21;7.65;;;1.45;;
33268;SDS011;19640;50.944;5.260;2023-09-19T09:01:52;3.90;;;1.38;;
33268;SDS011;19640;50.944;5.260;2023-09-19T09:04:19;7.80;;;1.30;;
33268;SDS011;19640;50.944;5.260;2023-09-19T09:06:45;9.00;;;1.10;;
33268;SDS011;19640;50.944;5.260;2023-09-19T09:09:19;8.38;;;1.38;;
33268;SDS011;19640;50.944;5.260;2023-09-19T09:11:48;5.72;;;1.40;;
33268;SDS011;19640;50.944;5.260;2023-09-19T09:14:19;7.37;;;1.70;;
33268;SDS011;19640;50.944;5.260;2023-09-19T09:16:46;7.18;;;1.20;;
33268;SDS011;19640;50.944;5.260;2023-09-19T09:19:13;9.93;;;1.65;;
33268;SDS011;19640;50.944;5.260;2023-09-19T09:21:41;6.75;;;1.40;;
33268;SDS011;19640;50.944;5.260;2023-09-19T09:26:56;4.45;;;1.30;;
33268;SDS011;19640;50.944;5.260;2023-09-19T09:34:45;6.88;;;1.17;;
33268;SDS011;19640;50.944;5.260;2023-09-19T09:37:34;8.20;;;1.52;;
33268;SDS011;19640;50.944;5.260;2023-09-19T09:40:03;4.15;;;1.00;;
33268;SDS011;19640;50.944;5.260;2023-09-19T09:42:50;4.88;;;1.65;;
33268;SDS011;19640;50.944;5.260;2023-09-19T09:45:23;5.18;;;0.95;;
33268;SDS011;19640;50.944;5.260;2023-09-19T09:48:00;5.25;;;1.35;;
33268;SDS011;19640;50.944;5.260;2023-09-19T09:50:46;4.65;;;1.00;;
33268;SDS011;19640;50.944;5.260;2023-09-19T09:53:26;5.72;;;1.30;;
33268;SDS011;19640;50.944;5.260;2023-09-19T09:56:06;7.47;;;1.33;;
33268;SDS011;19640;50.944;5.260;2023-09-19T10:01:14;6.65;;;1.40;;
33268;SDS011;19640;50.944;5.260;2023-09-19T10:03:41;3.45;;;1.20;;
33268;SDS011;19640;50.944;5.260;2023-09-19T10:06:15;8.57;;;1.40;;
33268;SDS011;19640;50.944;5.260;2023-09-19T10:11:44;7.28;;;1.80;;
33268;SDS011;19640;50.944;5.260;2023-09-19T10:14:20;7.78;;;1.77;;
33268;SDS011;19640;50.944;5.260;2023-09-19T10:16:49;6.57;;;1.20;;
33268;SDS011;19640;50.944;5.260;2023-09-19T10:19:36;5.00;;;1.00;;
33268;SDS011;19640;50.944;5.260;2023-09-19T10:22:03;5.90;;;1.23;;
33268;SDS011;19640;50.944;5.260;2023-09-19T10:24:30;5.50;;;1.20;;
33268;SDS011;19640;50.944;5.260;2023-09-19T10:27:01;5.40;;;1.15;;
33268;SDS011;19640;50.944;5.260;2023-09-19T10:29:29;4.10;;;1.17;;
33268;SDS011;19640;50.944;5.260;2023-09-19T10:34:31;9.10;;;1.20;;
33268;SDS011;19640;50.944;5.260;2023-09-19T10:37:00;3.65;;;0.95;;
33268;SDS011;19640;50.944;5.260;2023-09-19T10:39:31;5.38;;;1.42;;
33268;SDS011;19640;50.944;5.260;2023-09-19T10:42:01;6.53;;;1.20;;
33268;SDS011;19640;50.944;5.260;2023-09-19T10:44:32;5.82;;;0.98;;
33268;SDS011;19640;50.944;5.260;2023-09-19T10:46:59;5.47;;;1.60;;
33268;SDS011;19640;50.944;5.260;2023-09-19T10:49:26;5.05;;;1.30;;
33268;SDS011;19640;50.944;5.260;2023-09-19T10:51:53;4.82;;;1.00;;
33268;SDS011;19640;50.944;5.260;2023-09-19T10:54:24;9.93;;;1.00;;
33268;SDS011;19640;50.944;5.260;2023-09-19T10:56:54;4.47;;;1.08;;
33268;SDS011;19640;50.944;5.260;2023-09-19T10:59:23;4.03;;;0.90;;
33268;SDS011;19640;50.944;5.260;2023-09-19T11:01:53;3.13;;;1.00;;
33268;SDS011;19640;50.944;5.260;2023-09-19T11:04:28;4.60;;;1.10;;
33268;SDS011;19640;50.944;5.260;2023-09-19T11:07:05;6.70;;;1.00;;
33268;SDS011;19640;50.944;5.260;2023-09-19T11:09:55;3.88;;;0.93;;
33268;SDS011;19640;50.944;5.260;2023-09-19T11:15:06;5.65;;;1.00;;
33268;SDS011;19640;50.944;5.260;2023-09-19T11:30:38;2.35;;;0.70;;
33268;SDS011;19640;50.944;5.260;2023-09-19T11:33:24;2.85;;;0.75;;
33268;SDS011;19640;50.944;5.260;2023-09-19T11:36:07;4.07;;;0.75;;
33268;SDS011;19640;50.944;5.260;2023-09-19T11:43:53;3.83;;;0.70;;
33268;SDS011;19640;50.944;5.260;2023-09-19T11:49:19;1.90;;;0.50;;
33268;SDS011;19640;50.944;5.260;2023-09-19T11:51:51;1.85;;;0.40;;
33268;SDS011;19640;50.944;5.260;2023-09-19T11:54:17;3.33;;;0.85;;
33268;SDS011;19640;50.944;5.260;2023-09-19T11:56:47;5.47;;;1.05;;
33268;SDS011;19640;50.944;5.260;2023-09-19T11:59:22;2.53;;;1.05;;
33268;SDS011;19640;50.944;5.260;2023-09-19T12:01:52;6.13;;;0.88;;
33268;SDS011;19640;50.944;5.260;2023-09-19T12:04:32;1.15;;;0.50;;
33268;SDS011;19640;50.944;5.260;2023-09-19T12:06:58;5.18;;;0.77;;
33268;SDS011;19640;50.944;5.260;2023-09-19T12:09:24;4.63;;;0.82;;
33268;SDS011;19640;50.944;5.260;2023-09-19T12:11:50;2.03;;;0.60;;
33268;SDS011;19640;50.944;5.260;2023-09-19T12:14:26;2.03;;;0.43;;
33268;SDS011;19640;50.944;5.260;2023-09-19T12:16:55;2.50;;;0.55;;
33268;SDS011;19640;50.944;5.260;2023-09-19T12:19:22;3.53;;;0.63;;
33268;SDS011;19640;50.944;5.260;2023-09-19T12:22:01;1.63;;;0.70;;
33268;SDS011;19640;50.944;5.260;2023-09-19T12:24:31;2.17;;;0.50;;
33268;SDS011;19640;50.944;5.260;2023-09-19T12:27:01;1.85;;;0.40;;
33268;SDS011;19640;50.944;5.260;2023-09-19T12:29:41;2.58;;;0.40;;
33268;SDS011;19640;50.944;5.260;2023-09-19T12:32:11;3.33;;;0.57;;
33268;SDS011;19640;50.944;5.260;2023-09-19T12:34:38;2.80;;;0.40;;
33268;SDS011;19640;50.944;5.260;2023-09-19T12:37:10;2.65;;;0.60;;
33268;SDS011;19640;50.944;5.260;2023-09-19T12:39:42;2.50;;;0.80;;
33268;SDS011;19640;50.944;5.260;2023-09-19T12:42:14;2.78;;;0.55;;
33268;SDS011;19640;50.944;5.260;2023-09-19T12:44:44;1.50;;;0.50;;
33268;SDS011;19640;50.944;5.260;2023-09-19T12:47:15;1.35;;;0.50;;
33268;SDS011;19640;50.944;5.260;2023-09-19T12:52:42;2.60;;;0.43;;
33268;SDS011;19640;50.944;5.260;2023-09-19T12:55:18;2.00;;;0.45;;
33268;SDS011;19640;50.944;5.260;2023-09-19T12:58:13;7.18;;;1.13;;
33268;SDS011;19640;50.944;5.260;2023-09-19T13:00:45;1.13;;;0.32;;
33268;SDS011;19640;50.944;5.260;2023-09-19T13:11:03;1.90;;;0.40;;
33268;SDS011;19640;50.944;5.260;2023-09-19T13:13:32;2.83;;;0.57;;
33268;SDS011;19640;50.944;5.260;2023-09-19T13:16:01;2.25;;;0.40;;
33268;SDS011;19640;50.944;5.260;2023-09-19T13:18:29;2.17;;;0.50;;
33268;SDS011;19640;50.944;5.260;2023-09-19T13:21:06;1.48;;;0.40;;
33268;SDS011;19640;50.944;5.260;2023-09-19T13:23:37;3.53;;;0.45;;
33268;SDS011;19640;50.944;5.260;2023-09-19T13:26:03;1.88;;;0.50;;
33268;SDS011;19640;50.944;5.260;2023-09-19T13:28:31;1.20;;;0.45;;
33268;SDS011;19640;50.944;5.260;2023-09-19T13:30:59;4.03;;;0.57;;
33268;SDS011;19640;50.944;5.260;2023-09-19T13:33:26;2.08;;;0.50;;
33268;SDS011;19640;50.944;5.260;2023-09-19T13:35:52;3.33;;;0.52;;
33268;SDS011;19640;50.944;5.260;2023-09-19T13:38:20;2.75;;;0.70;;
33268;SDS011;19640;50.944;5.260;2023-09-19T13:40:47;2.50;;;0.50;;
33268;SDS011;19640;50.944;5.260;2023-09-19T13:43:14;1.88;;;0.57;;
33268;SDS011;19640;50.944;5.260;2023-09-19T13:45:40;1.55;;;0.40;;
33268;SDS011;19640;50.944;5.260;2023-09-19T13:48:09;1.77;;;0.45;;
33268;SDS011;19640;50.944;5.260;2023-09-19T13:50:38;6.25;;;0.52;;
33268;SDS011;19640;50.944;5.260;2023-09-19T13:53:07;1.67;;;0.43;;
33268;SDS011;19640;50.944;5.260;2023-09-19T13:55:34;4.95;;;0.43;;
33268;SDS011;19640;50.944;5.260;2023-09-19T13:58:00;3.25;;;0.50;;
33268;SDS011;19640;50.944;5.260;2023-09-19T14:00:25;2.38;;;0.43;;
33268;SDS011;19640;50.944;5.260;2023-09-19T14:02:52;7.20;;;0.52;;
33268;SDS011;19640;50.944;5.260;2023-09-19T14:05:18;3.20;;;0.40;;
33268;SDS011;19640;50.944;5.260;2023-09-19T14:07:45;1.88;;;0.50;;
33268;SDS011;19640;50.944;5.260;2023-09-19T14:10:11;2.20;;;0.50;;
33268;SDS011;19640;50.944;5.260;2023-09-19T14:12:37;2.22;;;0.60;;
33268;SDS011;19640;50.944;5.260;2023-09-19T14:15:06;3.08;;;0.60;;
33268;SDS011;19640;50.944;5.260;2023-09-19T14:17:33;3.65;;;0.50;;
33268;SDS011;19640;50.944;5.260;2023-09-19T14:19:59;1.42;;;0.52;;
33268;SDS011;19640;50.944;5.260;2023-09-19T14:22:24;1.85;;;0.40;;
33268;SDS011;19640;50.944;5.260;2023-09-19T14:24:50;4.32;;;0.60;;
33268;SDS011;19640;50.944;5.260;2023-09-19T14:27:18;1.17;;;0.32;;
33268;SDS011;19640;50.944;5.260;2023-09-19T14:29:44;2.88;;;0.80;;
33268;SDS011;19640;50.944;5.260;2023-09-19T14:32:10;2.03;;;0.55;;
33268;SDS011;19640;50.944;5.260;2023-09-19T14:34:36;2.15;;;0.50;;
33268;SDS011;19640;50.944;5.260;2023-09-19T14:37:07;3.10;;;0.88;;
33268;SDS011;19640;50.944;5.260;2023-09-19T14:39:33;2.00;;;0.50;;
33268;SDS011;19640;50.944;5.260;2023-09-19T14:41:59;4.35;;;0.50;;
33268;SDS011;19640;50.944;5.260;2023-09-19T14:44:24;1.17;;;0.38;;
33268;SDS011;19640;50.944;5.260;2023-09-19T14:46:50;1.27;;;0.52;;
33268;SDS011;19640;50.944;5.260;2023-09-19T14:49:16;0.98;;;0.50;;
33268;SDS011;19640;50.944;5.260;2023-09-19T14:51:42;4.88;;;0.55;;
33268;SDS011;19640;50.944;5.260;2023-09-19T14:54:09;2.85;;;0.50;;
33268;SDS011;19640;50.944;5.260;2023-09-19T14:56:35;1.92;;;0.40;;
33268;SDS011;19640;50.944;5.260;2023-09-19T14:59:01;1.95;;;0.57;;
33268;SDS011;19640;50.944;5.260;2023-09-19T15:01:27;2.80;;;1.02;;
33268;SDS011;19640;50.944;5.260;2023-09-19T15:03:54;2.58;;;0.57;;
33268;SDS011;19640;50.944;5.260;2023-09-19T15:06:20;2.67;;;0.47;;
33268;SDS011;19640;50.944;5.260;2023-09-19T15:08:46;2.17;;;0.50;;
33268;SDS011;19640;50.944;5.260;2023-09-19T15:11:13;2.08;;;0.63;;
33268;SDS011;19640;50.944;5.260;2023-09-19T15:13:43;1.85;;;0.50;;
33268;SDS011;19640;50.944;5.260;2023-09-19T15:16:10;2.05;;;0.43;;
33268;SDS011;19640;50.944;5.260;2023-09-19T15:18:37;4.15;;;0.68;;
33268;SDS011;19640;50.944;5.260;2023-09-19T15:21:04;2.55;;;0.80;;
33268;SDS011;19640;50.944;5.260;2023-09-19T15:23:31;3.53;;;0.90;;
33268;SDS011;19640;50.944;5.260;2023-09-19T15:26:02;3.65;;;0.50;;
33268;SDS011;19640;50.944;5.260;2023-09-19T15:28:28;1.23;;;0.50;;
33268;SDS011;19640;50.944;5.260;2023-09-19T15:31:05;3.92;;;0.60;;
33268;SDS011;19640;50.944;5.260;2023-09-19T15:33:33;3.72;;;0.70;;
33268;SDS011;19640;50.944;5.260;2023-09-19T15:36:03;1.48;;;0.70;;
33268;SDS011;19640;50.944;5.260;2023-09-19T15:41:27;2.35;;;0.57;;
33268;SDS011;19640;50.944;5.260;2023-09-19T15:43:55;1.65;;;0.60;;
33268;SDS011;19640;50.944;5.260;2023-09-19T15:46:22;3.58;;;0.80;;
33268;SDS011;19640;50.944;5.260;2023-09-19T15:48:49;3.28;;;0.80;;
33268;SDS011;19640;50.944;5.260;2023-09-19T15:51:16;3.75;;;0.70;;
33268;SDS011;19640;50.944;5.260;2023-09-19T15:53:43;0.80;;;0.43;;
33268;SDS011;19640;50.944;5.260;2023-09-19T15:56:11;1.35;;;0.57;;
33268;SDS011;19640;50.944;5.260;2023-09-19T15:58:39;3.65;;;1.05;;
33268;SDS011;19640;50.944;5.260;2023-09-19T16:01:16;7.32;;;1.05;;
33268;SDS011;19640;50.944;5.260;2023-09-19T16:03:43;9.82;;;1.20;;
33268;SDS011;19640;50.944;5.260;2023-09-19T16:06:19;2.20;;;0.70;;
33268;SDS011;19640;50.944;5.260;2023-09-19T16:08:48;3.35;;;0.88;;
33268;SDS011;19640;50.944;5.260;2023-09-19T16:11:16;1.52;;;0.73;;
33268;SDS011;19640;50.944;5.260;2023-09-19T16:13:43;2.85;;;0.80;;
33268;SDS011;19640;50.944;5.260;2023-09-19T16:16:12;2.30;;;0.70;;
33268;SDS011;19640;50.944;5.260;2023-09-19T16:18:53;1.90;;;0.50;;
33268;SDS011;19640;50.944;5.260;2023-09-19T16:21:29;2.47;;;0.60;;
33268;SDS011;19640;50.944;5.260;2023-09-19T16:23:57;3.28;;;0.80;;
33268;SDS011;19640;50.944;5.260;2023-09-19T16:26:25;4.60;;;0.70;;
33268;SDS011;19640;50.944;5.260;2023-09-19T16:28:55;2.40;;;0.68;;
33268;SDS011;19640;50.944;5.260;2023-09-19T16:31:25;1.13;;;0.52;;